createdAt,value
2018-09-26T00:00:47.967Z,26.65
2018-09-26T00:01:47.972Z,26.69
2018-09-26T00:02:47.980Z,26.72
2018-09-26T00:03:47.985Z,26.65
2018-09-26T00:04:47.993Z,26.75
2018-09-26T00:05:47.995Z,26.70
2018-09-26T00:06:47.998Z,26.76
2018-09-26T00:07:48.008Z,26.67
2018-09-26T00:08:48.013Z,26.66
2018-09-26T00:09:48.017Z,26.63
2018-09-26T00:10:48.023Z,26.69
2018-09-26T00:11:48.032Z,26.67
2018-09-26T00:12:48.035Z,26.73
2018-09-26T00:13:48.040Z,26.63
2018-09-26T00:14:48.047Z,26.75
2018-09-26T00:15:48.051Z,26.58
2018-09-26T00:16:48.057Z,26.66
2018-09-26T00:17:48.066Z,26.66
2018-09-26T00:18:48.077Z,26.60
2018-09-26T00:19:48.074Z,26.76
2018-09-26T00:20:48.084Z,26.69
2018-09-26T00:21:48.095Z,26.70
2018-09-26T00:22:48.091Z,26.65
2018-09-26T00:23:48.096Z,26.76
2018-09-26T00:24:48.103Z,26.67
2018-09-26T00:25:48.107Z,26.63
2018-09-26T00:26:48.117Z,26.66
2018-09-26T00:27:48.122Z,26.66
2018-09-26T00:28:48.126Z,26.75
2018-09-26T00:29:48.131Z,26.72
2018-09-26T00:30:48.138Z,26.63
2018-09-26T00:31:48.176Z,26.73
2018-09-26T00:32:48.148Z,26.72
2018-09-26T00:33:48.155Z,26.72
2018-09-26T00:34:48.159Z,26.73
2018-09-26T00:35:48.206Z,26.67
2018-09-26T00:36:48.171Z,26.67
2018-09-26T00:37:48.175Z,26.73
2018-09-26T00:38:48.181Z,26.67
2018-09-26T00:39:48.187Z,26.73
2018-09-26T00:40:48.200Z,26.70
2018-09-26T00:41:48.204Z,26.73
2018-09-26T00:42:48.206Z,26.75
2018-09-26T00:43:48.210Z,26.72
2018-09-26T00:44:48.216Z,26.75
2018-09-26T00:45:48.220Z,26.65
2018-09-26T00:46:48.227Z,26.73
2018-09-26T00:47:48.237Z,26.72
2018-09-26T00:48:48.238Z,26.67
2018-09-26T00:49:48.244Z,26.73
2018-09-26T00:50:48.251Z,26.73
2018-09-26T00:51:48.255Z,26.69
2018-09-26T00:52:48.261Z,26.70
2018-09-26T00:53:48.267Z,26.73
2018-09-26T00:54:48.276Z,26.80
2018-09-26T00:55:48.278Z,26.66
2018-09-26T00:56:48.289Z,26.75
2018-09-26T00:57:48.290Z,26.60
2018-09-26T00:58:48.295Z,26.65
2018-09-26T00:59:48.302Z,26.73
2018-09-26T01:00:48.310Z,26.73
2018-09-26T01:01:48.311Z,26.73
2018-09-26T01:02:48.317Z,26.72
2018-09-26T01:03:48.323Z,26.70
2018-09-26T01:04:48.334Z,26.67
2018-09-26T01:05:48.336Z,26.72
2018-09-26T01:06:48.340Z,26.76
2018-09-26T01:07:48.350Z,26.65
2018-09-26T01:08:48.351Z,26.66
2018-09-26T01:09:48.357Z,26.65
2018-09-26T01:10:48.365Z,26.66
2018-09-26T01:11:48.374Z,26.76
2018-09-26T01:12:48.374Z,26.75
2018-09-26T01:13:48.379Z,26.70
2018-09-26T01:14:48.388Z,26.67
2018-09-26T01:15:48.390Z,26.73
2018-09-26T01:16:48.410Z,26.72
2018-09-26T01:17:48.407Z,26.60
2018-09-26T01:18:48.408Z,26.67
2018-09-26T01:19:48.414Z,26.65
2018-09-26T01:20:48.420Z,26.67
2018-09-26T01:21:48.439Z,26.69
2018-09-26T01:22:48.431Z,26.75
2018-09-26T01:23:48.437Z,26.72
2018-09-26T01:24:48.443Z,26.69
2018-09-26T01:25:48.448Z,26.66
2018-09-26T01:26:48.455Z,26.72
2018-09-26T01:27:48.463Z,26.77
2018-09-26T01:28:48.470Z,26.73
2018-09-26T01:29:48.470Z,26.80
2018-09-26T01:30:48.476Z,26.70
2018-09-26T01:31:48.483Z,26.67
2018-09-26T01:32:48.488Z,26.80
2018-09-26T01:33:48.493Z,26.70
2018-09-26T01:34:48.500Z,26.76
2018-09-26T01:35:48.504Z,26.72
2018-09-26T01:36:48.511Z,26.65
2018-09-26T01:37:48.516Z,26.75
2018-09-26T01:38:48.522Z,26.72
2018-09-26T01:39:48.529Z,26.70
2018-09-26T01:40:48.535Z,26.72
2018-09-26T01:41:48.543Z,26.77
2018-09-26T01:42:48.545Z,26.73
2018-09-26T01:43:48.552Z,26.81
2018-09-26T01:44:48.559Z,26.76
2018-09-26T01:45:48.561Z,26.75
2018-09-26T01:46:48.576Z,26.73
2018-09-26T01:47:48.573Z,26.73
2018-09-26T01:48:48.579Z,26.63
2018-09-26T01:49:48.583Z,26.69
2018-09-26T01:50:48.595Z,26.72
2018-09-26T01:51:48.600Z,26.76
2018-09-26T01:52:48.602Z,26.70
2018-09-26T01:53:48.613Z,26.75
2018-09-26T01:54:48.613Z,26.63
2018-09-26T01:55:48.619Z,26.66
2018-09-26T01:56:48.624Z,26.66
2018-09-26T01:57:48.629Z,26.75
2018-09-26T01:58:48.636Z,26.69
2018-09-26T01:59:48.642Z,26.75
2018-09-26T02:00:48.646Z,26.76
2018-09-26T02:01:48.650Z,26.75
2018-09-26T02:02:48.660Z,26.77
2018-09-26T02:03:48.664Z,26.75
2018-09-26T02:04:48.670Z,26.75
2018-09-26T02:05:48.675Z,26.69
2018-09-26T02:06:48.680Z,26.69
2018-09-26T02:07:48.686Z,26.62
2018-09-26T02:08:48.692Z,26.76
2018-09-26T02:09:48.697Z,26.77
2018-09-26T02:10:48.703Z,26.76
2018-09-26T02:11:48.713Z,26.76
2018-09-26T02:12:48.716Z,26.69
2018-09-26T02:13:48.721Z,26.73
2018-09-26T02:14:48.726Z,26.76
2018-09-26T02:15:48.732Z,26.72
2018-09-26T02:16:48.734Z,26.75
2018-09-26T02:17:48.746Z,26.63
2018-09-26T02:18:48.748Z,26.70
2018-09-26T02:19:48.757Z,26.65
2018-09-26T02:20:48.761Z,26.66
2018-09-26T02:21:48.763Z,26.65
2018-09-26T02:22:48.773Z,26.69
2018-09-26T02:23:48.939Z,26.65
2018-09-26T02:24:48.796Z,26.63
2018-09-26T02:25:48.791Z,26.63
2018-09-26T02:26:48.794Z,26.62
2018-09-26T02:27:48.805Z,26.62
2018-09-26T02:28:48.807Z,26.66
2018-09-26T02:29:48.810Z,26.62
2018-09-26T02:30:48.817Z,26.57
2018-09-26T02:31:48.823Z,26.70
2018-09-26T02:32:48.829Z,26.60
2018-09-26T02:33:48.834Z,26.52
2018-09-26T02:34:48.840Z,26.54
2018-09-26T02:35:48.846Z,26.57
2018-09-26T02:36:48.851Z,26.63
2018-09-26T02:37:48.860Z,26.57
2018-09-26T02:38:48.863Z,26.63
2018-09-26T02:39:48.868Z,26.54
2018-09-26T02:40:48.874Z,26.65
2018-09-26T02:41:48.881Z,26.52
2018-09-26T02:42:48.886Z,26.52
2018-09-26T02:43:48.892Z,26.57
2018-09-26T02:44:48.898Z,26.57
2018-09-26T02:45:48.902Z,26.57
2018-09-26T02:46:48.908Z,26.55
2018-09-26T02:47:48.922Z,26.51
2018-09-26T02:48:48.919Z,26.54
2018-09-26T02:49:48.925Z,26.51
2018-09-26T02:50:48.930Z,26.60
2018-09-26T02:51:48.935Z,26.54
2018-09-26T02:52:48.942Z,26.55
2018-09-26T02:53:48.946Z,26.54
2018-09-26T02:54:48.952Z,26.50
2018-09-26T02:55:49.015Z,26.54
2018-09-26T02:56:48.970Z,26.50
2018-09-26T02:57:48.974Z,26.50
2018-09-26T02:58:48.975Z,26.51
2018-09-26T02:59:48.987Z,26.51
2018-09-26T03:00:48.987Z,26.50
2018-09-26T03:01:48.991Z,26.47
2018-09-26T03:02:48.998Z,26.47
2018-09-26T03:03:49.004Z,26.48
2018-09-26T03:04:49.009Z,26.48
2018-09-26T03:05:49.013Z,26.43
2018-09-26T03:06:49.023Z,26.45
2018-09-26T03:07:49.025Z,26.45
2018-09-26T03:08:49.031Z,26.50
2018-09-26T03:09:49.041Z,26.50
2018-09-26T03:10:49.047Z,26.43
2018-09-26T03:11:49.048Z,26.39
2018-09-26T03:12:49.053Z,26.44
2018-09-26T03:13:49.058Z,26.47
2018-09-26T03:14:49.065Z,26.39
2018-09-26T03:15:49.070Z,26.48
2018-09-26T03:16:49.076Z,26.45
2018-09-26T03:17:49.083Z,26.51
2018-09-26T03:18:49.088Z,26.40
2018-09-26T03:19:49.092Z,26.50
2018-09-26T03:20:49.097Z,26.43
2018-09-26T03:21:49.102Z,26.50
2018-09-26T03:22:49.108Z,26.47
2018-09-26T03:23:49.118Z,26.36
2018-09-26T03:24:49.121Z,26.47
2018-09-26T03:25:49.125Z,26.45
2018-09-26T03:26:49.130Z,26.43
2018-09-26T03:27:49.136Z,26.44
2018-09-26T03:28:49.142Z,26.44
2018-09-26T03:29:49.149Z,26.47
2018-09-26T03:30:49.153Z,26.48
2018-09-26T03:31:49.158Z,26.45
2018-09-26T03:32:49.162Z,26.50
2018-09-26T03:33:49.304Z,26.45
2018-09-26T03:34:49.178Z,26.48
2018-09-26T03:35:49.180Z,26.44
2018-09-26T03:36:49.186Z,26.47
2018-09-26T03:37:49.190Z,26.47
2018-09-26T03:38:49.196Z,26.45
2018-09-26T03:39:49.202Z,26.47
2018-09-26T03:40:49.212Z,26.47
2018-09-26T03:41:49.214Z,26.43
2018-09-26T03:42:49.222Z,26.47
2018-09-26T03:43:49.223Z,26.40
2018-09-26T03:44:49.231Z,26.39
2018-09-26T03:45:49.234Z,26.43
2018-09-26T03:46:49.245Z,26.44
2018-09-26T03:47:49.247Z,26.40
2018-09-26T03:48:49.251Z,26.44
2018-09-26T03:49:49.256Z,26.43
2018-09-26T03:50:49.267Z,26.45
2018-09-26T03:51:49.268Z,26.43
2018-09-26T03:52:49.286Z,26.43
2018-09-26T03:53:49.278Z,26.47
2018-09-26T03:54:49.284Z,26.47
2018-09-26T03:55:49.290Z,26.48
2018-09-26T03:56:49.298Z,26.43
2018-09-26T03:57:49.324Z,26.39
2018-09-26T03:58:49.306Z,26.37
2018-09-26T03:59:49.312Z,26.37
2018-09-26T04:00:49.317Z,26.36
2018-09-26T04:01:49.321Z,26.40
2018-09-26T04:02:49.329Z,26.36
2018-09-26T04:03:49.338Z,26.35
2018-09-26T04:04:49.393Z,26.39
2018-09-26T04:05:49.353Z,26.40
2018-09-26T04:06:49.351Z,26.33
2018-09-26T04:07:49.356Z,26.39
2018-09-26T04:08:49.362Z,26.44
2018-09-26T04:09:49.366Z,26.44
2018-09-26T04:10:49.374Z,26.45
2018-09-26T04:11:49.403Z,26.45
2018-09-26T04:12:49.545Z,26.43
2018-09-26T04:13:49.389Z,26.37
2018-09-26T04:14:49.394Z,26.36
2018-09-26T04:15:49.466Z,26.39
2018-09-26T04:16:49.413Z,26.36
2018-09-26T04:17:49.411Z,26.36
2018-09-26T04:18:49.417Z,26.43
2018-09-26T04:19:49.421Z,26.36
2018-09-26T04:20:49.433Z,26.40
2018-09-26T04:21:49.433Z,26.40
2018-09-26T04:22:49.437Z,26.32
2018-09-26T04:23:49.451Z,26.36
2018-09-26T04:24:49.453Z,26.33
2018-09-26T04:25:49.454Z,26.36
2018-09-26T04:26:49.631Z,26.28
2018-09-26T04:27:49.530Z,26.39
2018-09-26T04:28:49.471Z,26.35
2018-09-26T04:29:49.476Z,26.36
2018-09-26T04:30:49.482Z,26.35
2018-09-26T04:31:49.487Z,26.32
2018-09-26T04:32:49.627Z,26.33
2018-09-26T04:33:49.577Z,26.33
2018-09-26T04:34:49.505Z,26.36
2018-09-26T04:35:49.509Z,26.28
2018-09-26T04:36:49.522Z,26.33
2018-09-26T04:37:49.525Z,26.35
2018-09-26T04:38:49.670Z,26.37
2018-09-26T04:39:49.531Z,26.37
2018-09-26T04:40:49.541Z,26.39
2018-09-26T04:41:49.544Z,26.37
2018-09-26T04:42:49.547Z,26.39
2018-09-26T04:43:49.552Z,26.35
2018-09-26T04:44:49.559Z,26.37
2018-09-26T04:45:49.563Z,26.40
2018-09-26T04:46:49.569Z,26.36
2018-09-26T04:47:49.575Z,26.32
2018-09-26T04:48:49.580Z,26.44
2018-09-26T04:49:49.588Z,26.47
2018-09-26T04:50:49.598Z,26.45
2018-09-26T04:51:49.608Z,26.48
2018-09-26T04:52:49.610Z,26.48
2018-09-26T04:53:49.612Z,26.51
2018-09-26T04:54:49.613Z,26.40
2018-09-26T04:55:49.619Z,26.55
2018-09-26T04:56:49.627Z,26.55
2018-09-26T04:57:49.668Z,26.50
2018-09-26T04:58:49.634Z,26.55
2018-09-26T04:59:49.642Z,26.60
2018-09-26T05:00:49.646Z,26.55
2018-09-26T05:01:49.655Z,26.57
2018-09-26T05:02:49.657Z,26.52
2018-09-26T05:03:49.662Z,26.69
2018-09-26T05:04:49.682Z,26.69
2018-09-26T05:05:49.685Z,26.73
2018-09-26T05:06:49.684Z,26.70
2018-09-26T05:07:49.686Z,26.65
2018-09-26T05:08:49.706Z,26.67
2018-09-26T05:09:49.698Z,26.66
2018-09-26T05:10:49.702Z,26.72
2018-09-26T05:11:49.707Z,26.75
2018-09-26T05:12:49.714Z,26.75
2018-09-26T05:13:49.718Z,26.81
2018-09-26T05:14:49.830Z,26.69
2018-09-26T05:15:49.729Z,26.75
2018-09-26T05:16:49.737Z,26.76
2018-09-26T05:17:49.741Z,26.70
2018-09-26T05:18:49.746Z,26.73
2018-09-26T05:19:49.752Z,26.80
2018-09-26T05:20:49.758Z,26.72
2018-09-26T05:21:49.763Z,26.80
2018-09-26T05:22:49.821Z,26.76
2018-09-26T05:23:49.778Z,26.87
2018-09-26T05:24:49.782Z,26.84
2018-09-26T05:25:49.786Z,26.91
2018-09-26T05:26:49.793Z,26.92
2018-09-26T05:27:49.798Z,26.89
2018-09-26T05:28:49.805Z,26.92
2018-09-26T05:29:49.810Z,26.91
2018-09-26T05:30:49.816Z,26.89
2018-09-26T05:31:49.822Z,26.87
2018-09-26T05:32:49.830Z,26.87
2018-09-26T05:33:49.833Z,26.94
2018-09-26T05:34:49.839Z,26.97
2018-09-26T05:35:49.845Z,26.97
2018-09-26T05:36:49.852Z,26.97
2018-09-26T05:37:49.856Z,27.07
2018-09-26T05:38:49.863Z,27.07
2018-09-26T05:39:49.868Z,27.14
2018-09-26T05:40:49.895Z,27.09
2018-09-26T05:41:49.947Z,27.17
2018-09-26T05:42:49.886Z,27.17
2018-09-26T05:43:49.895Z,27.12
2018-09-26T05:44:49.898Z,27.14
2018-09-26T05:45:49.903Z,27.17
2018-09-26T05:46:49.909Z,27.21
2018-09-26T05:47:49.916Z,27.25
2018-09-26T05:48:49.923Z,27.21
2018-09-26T05:49:49.928Z,27.19
2018-09-26T05:50:49.933Z,27.21
2018-09-26T05:51:49.940Z,27.22
2018-09-26T05:52:49.947Z,27.22
2018-09-26T05:53:49.951Z,27.39
2018-09-26T05:54:49.957Z,27.29
2018-09-26T05:55:49.965Z,27.34
2018-09-26T05:56:49.979Z,27.34
2018-09-26T05:57:49.974Z,27.32
2018-09-26T05:58:49.981Z,27.37
2018-09-26T05:59:49.986Z,27.32
2018-09-26T06:00:49.994Z,27.40
2018-09-26T06:01:49.999Z,27.37
2018-09-26T06:02:50.005Z,27.32
2018-09-26T06:03:50.014Z,27.43
2018-09-26T06:04:50.018Z,27.36
2018-09-26T06:05:50.023Z,27.28
2018-09-26T06:06:50.032Z,27.29
2018-09-26T06:07:50.036Z,27.36
2018-09-26T06:08:50.043Z,27.31
2018-09-26T06:09:50.048Z,27.36
2018-09-26T06:10:50.054Z,27.32
2018-09-26T06:11:50.062Z,27.34
2018-09-26T06:12:50.094Z,27.29
2018-09-26T06:13:50.072Z,27.34
2018-09-26T06:14:50.078Z,27.36
2018-09-26T06:15:50.084Z,27.32
2018-09-26T06:16:50.091Z,27.39
2018-09-26T06:17:50.104Z,27.39
2018-09-26T06:18:50.107Z,27.36
2018-09-26T06:19:50.109Z,27.36
2018-09-26T06:20:50.116Z,27.29
2018-09-26T06:21:50.122Z,27.32
2018-09-26T06:22:50.127Z,27.40
2018-09-26T06:23:50.133Z,27.43
2018-09-26T06:24:50.262Z,27.44
2018-09-26T06:25:50.145Z,27.40
2018-09-26T06:26:50.156Z,27.44
2018-09-26T06:27:50.158Z,27.43
2018-09-26T06:28:50.168Z,27.47
2018-09-26T06:29:50.174Z,27.44
2018-09-26T06:30:50.178Z,27.41
2018-09-26T06:31:50.182Z,27.43
2018-09-26T06:32:50.188Z,27.44
2018-09-26T06:33:50.195Z,27.40
2018-09-26T06:34:50.248Z,27.55
2018-09-26T06:35:50.209Z,27.46
2018-09-26T06:36:50.216Z,27.46
2018-09-26T06:37:50.221Z,27.49
2018-09-26T06:38:50.224Z,27.57
2018-09-26T06:39:50.233Z,27.51
2018-09-26T06:40:50.237Z,27.54
2018-09-26T06:41:50.240Z,27.59
2018-09-26T06:42:50.251Z,27.54
2018-09-26T06:43:50.257Z,27.57
2018-09-26T06:44:50.262Z,27.63
2018-09-26T06:45:50.267Z,27.63
2018-09-26T06:46:50.274Z,27.67
2018-09-26T06:47:50.289Z,27.66
2018-09-26T06:48:50.289Z,27.65
2018-09-26T06:49:50.296Z,27.57
2018-09-26T06:50:50.301Z,27.62
2018-09-26T06:51:50.307Z,27.63
2018-09-26T06:52:50.319Z,27.60
2018-09-26T06:53:50.340Z,27.60
2018-09-26T06:54:50.324Z,27.65
2018-09-26T06:55:50.331Z,27.69
2018-09-26T06:56:50.383Z,27.70
2018-09-26T06:57:50.343Z,27.72
2018-09-26T06:58:50.352Z,27.66
2018-09-26T06:59:50.355Z,27.66
2018-09-26T07:00:50.362Z,27.66
2018-09-26T07:01:50.365Z,27.72
2018-09-26T07:02:50.376Z,27.79
2018-09-26T07:03:50.381Z,27.77
2018-09-26T07:04:50.385Z,27.74
2018-09-26T07:05:50.393Z,27.77
2018-09-26T07:06:50.401Z,27.74
2018-09-26T07:07:50.407Z,27.75
2018-09-26T07:08:50.412Z,27.77
2018-09-26T07:09:50.418Z,27.74
2018-09-26T07:10:50.434Z,27.72
2018-09-26T07:11:50.432Z,27.74
2018-09-26T07:12:50.437Z,27.82
2018-09-26T07:13:50.442Z,27.77
2018-09-26T07:14:50.460Z,27.81
2018-09-26T07:15:50.457Z,27.70
2018-09-26T07:16:50.462Z,27.77
2018-09-26T07:17:50.471Z,27.82
2018-09-26T07:18:50.474Z,27.81
2018-09-26T07:19:50.489Z,27.72
2018-09-26T07:20:50.488Z,27.78
2018-09-26T07:21:50.494Z,27.81
2018-09-26T07:22:50.503Z,27.79
2018-09-26T07:23:50.531Z,27.78
2018-09-26T07:24:50.514Z,27.78
2018-09-26T07:25:50.520Z,27.72
2018-09-26T07:26:50.532Z,27.72
2018-09-26T07:27:50.532Z,27.78
2018-09-26T07:28:50.536Z,27.75
2018-09-26T07:29:50.553Z,27.75
2018-09-26T07:30:50.549Z,27.74
2018-09-26T07:31:50.597Z,27.79
2018-09-26T07:32:50.564Z,27.81
2018-09-26T07:33:50.570Z,27.74
2018-09-26T07:34:50.587Z,27.75
2018-09-26T07:35:50.581Z,27.81
2018-09-26T07:36:50.591Z,27.75
2018-09-26T07:37:50.602Z,27.82
2018-09-26T07:38:50.608Z,27.78
2018-09-26T07:39:50.606Z,27.81
2018-09-26T07:40:50.613Z,27.78
2018-09-26T07:41:50.620Z,27.82
2018-09-26T07:42:50.626Z,27.84
2018-09-26T07:43:50.634Z,27.75
2018-09-26T07:44:50.640Z,27.78
2018-09-26T07:45:50.765Z,27.79
2018-09-26T07:46:50.653Z,27.92
2018-09-26T07:47:50.660Z,27.94
2018-09-26T07:48:50.666Z,27.82
2018-09-26T07:49:50.675Z,27.84
2018-09-26T07:50:50.689Z,27.88
2018-09-26T07:51:50.688Z,27.74
2018-09-26T07:52:50.698Z,27.82
2018-09-26T07:53:50.711Z,27.85
2018-09-26T07:54:50.703Z,27.87
2018-09-26T07:55:50.720Z,27.85
2018-09-26T07:56:50.716Z,27.87
2018-09-26T07:57:50.723Z,27.88
2018-09-26T07:58:50.730Z,27.92
2018-09-26T07:59:50.792Z,27.92
2018-09-26T08:00:50.742Z,27.87
2018-09-26T08:01:50.749Z,27.88
2018-09-26T08:02:50.754Z,27.87
2018-09-26T08:03:50.766Z,27.93
2018-09-26T08:04:50.765Z,27.94
2018-09-26T08:05:50.818Z,27.84
2018-09-26T08:06:50.778Z,27.92
2018-09-26T08:07:50.787Z,27.93
2018-09-26T08:08:50.790Z,27.87
2018-09-26T08:09:50.828Z,27.96
2018-09-26T08:10:50.806Z,27.92
2018-09-26T08:11:50.886Z,27.90
2018-09-26T08:12:50.818Z,27.93
2018-09-26T08:13:50.823Z,27.94
2018-09-26T08:14:50.834Z,27.90
2018-09-26T08:15:50.837Z,27.99
2018-09-26T08:16:50.847Z,27.90
2018-09-26T08:17:50.851Z,27.88
2018-09-26T08:18:50.892Z,27.90
2018-09-26T08:19:50.864Z,27.92
2018-09-26T08:20:50.870Z,27.87
2018-09-26T08:21:50.875Z,27.99
2018-09-26T08:22:50.883Z,27.96
2018-09-26T08:23:51.011Z,27.93
2018-09-26T08:24:50.895Z,27.93
2018-09-26T08:25:50.901Z,27.94
2018-09-26T08:26:50.907Z,27.96
2018-09-26T08:27:50.915Z,27.93
2018-09-26T08:28:50.923Z,27.92
2018-09-26T08:29:50.985Z,27.94
2018-09-26T08:30:50.933Z,27.96
2018-09-26T08:31:50.941Z,27.94
2018-09-26T08:32:50.947Z,27.92
2018-09-26T08:33:50.952Z,27.93
2018-09-26T08:34:50.958Z,27.96
2018-09-26T08:35:50.965Z,27.96
2018-09-26T08:36:50.980Z,27.99
2018-09-26T08:37:50.978Z,27.99
2018-09-26T08:38:50.987Z,27.93
2018-09-26T08:39:50.991Z,27.94
2018-09-26T08:40:50.997Z,27.97
2018-09-26T08:41:51.013Z,27.88
2018-09-26T08:42:51.011Z,27.92
2018-09-26T08:43:51.037Z,27.88
2018-09-26T08:44:51.024Z,27.88
2018-09-26T08:45:51.033Z,27.85
2018-09-26T08:46:51.033Z,27.85
2018-09-26T08:47:51.041Z,27.92
2018-09-26T08:48:51.048Z,27.88
2018-09-26T08:49:51.058Z,27.81
2018-09-26T08:50:51.065Z,27.78
2018-09-26T08:51:51.074Z,27.79
2018-09-26T08:52:51.075Z,27.82
2018-09-26T08:53:51.152Z,27.77
2018-09-26T08:54:51.087Z,27.77
2018-09-26T08:55:51.092Z,27.72
2018-09-26T08:56:51.105Z,27.74
2018-09-26T08:57:51.114Z,27.75
2018-09-26T08:58:51.120Z,27.72
2018-09-26T08:59:51.192Z,27.74
2018-09-26T09:00:51.135Z,27.69
2018-09-26T09:01:51.130Z,27.66
2018-09-26T09:02:51.141Z,27.72
2018-09-26T09:03:51.143Z,27.69
2018-09-26T09:04:51.150Z,27.74
2018-09-26T09:05:51.160Z,27.69
2018-09-26T09:06:51.160Z,27.59
2018-09-26T09:07:51.169Z,27.57
2018-09-26T09:08:51.223Z,27.63
2018-09-26T09:09:51.180Z,27.62
2018-09-26T09:10:51.189Z,27.60
2018-09-26T09:11:51.193Z,27.69
2018-09-26T09:12:51.200Z,27.60
2018-09-26T09:13:51.222Z,27.66
2018-09-26T09:14:51.408Z,27.59
2018-09-26T09:15:51.220Z,27.65
2018-09-26T09:16:51.227Z,27.75
2018-09-26T09:17:51.305Z,27.62
2018-09-26T09:18:51.248Z,27.65
2018-09-26T09:19:51.243Z,27.63
2018-09-26T09:20:51.248Z,27.63
2018-09-26T09:21:51.254Z,27.62
2018-09-26T09:22:51.262Z,27.67
2018-09-26T09:23:51.267Z,27.67
2018-09-26T09:24:51.274Z,27.67
2018-09-26T09:25:51.280Z,27.69
2018-09-26T09:26:51.288Z,27.62
2018-09-26T09:27:51.292Z,27.65
2018-09-26T09:28:51.304Z,27.63
2018-09-26T09:29:51.303Z,27.70
2018-09-26T09:30:51.310Z,27.60
2018-09-26T09:31:51.316Z,27.67
2018-09-26T09:32:51.325Z,27.70
2018-09-26T09:33:51.329Z,27.74
2018-09-26T09:34:51.337Z,27.74
2018-09-26T09:35:51.344Z,27.65
2018-09-26T09:36:51.348Z,27.69
2018-09-26T09:37:51.352Z,27.78
2018-09-26T09:38:51.376Z,27.66
2018-09-26T09:39:51.368Z,27.63
2018-09-26T09:40:51.374Z,27.63
2018-09-26T09:41:51.377Z,27.72
2018-09-26T09:42:51.387Z,27.67
2018-09-26T09:43:51.447Z,27.65
2018-09-26T09:44:51.399Z,27.69
2018-09-26T09:45:51.402Z,27.70
2018-09-26T09:46:51.414Z,27.67
2018-09-26T09:47:51.415Z,27.70
2018-09-26T09:48:51.422Z,27.72
2018-09-26T09:49:51.426Z,27.66
2018-09-26T09:50:51.434Z,27.65
2018-09-26T09:51:51.441Z,27.63
2018-09-26T09:52:51.446Z,27.67
2018-09-26T09:53:51.451Z,27.67
2018-09-26T09:54:51.460Z,27.66
2018-09-26T09:55:51.465Z,27.75
2018-09-26T09:56:51.471Z,27.67
2018-09-26T09:57:51.480Z,27.75
2018-09-26T09:58:51.487Z,27.77
2018-09-26T09:59:51.499Z,27.70
2018-09-26T10:00:51.495Z,27.74
2018-09-26T10:01:51.503Z,27.77
2018-09-26T10:02:51.616Z,27.66
2018-09-26T10:03:51.545Z,27.62
2018-09-26T10:04:51.522Z,27.74
2018-09-26T10:05:51.530Z,27.62
2018-09-26T10:06:51.530Z,27.66
2018-09-26T10:07:51.540Z,27.74
2018-09-26T10:08:51.617Z,27.70
2018-09-26T10:09:51.561Z,27.77
2018-09-26T10:10:51.558Z,27.66
2018-09-26T10:11:51.568Z,27.72
2018-09-26T10:12:51.571Z,27.74
2018-09-26T10:13:51.576Z,27.62
2018-09-26T10:14:51.581Z,27.75
2018-09-26T10:15:51.589Z,27.75
2018-09-26T10:16:51.600Z,27.70
2018-09-26T10:17:51.599Z,27.65
2018-09-26T10:18:51.610Z,27.70
2018-09-26T10:19:51.621Z,27.65
2018-09-26T10:20:51.620Z,27.70
2018-09-26T10:21:51.627Z,27.72
2018-09-26T10:22:51.634Z,27.75
2018-09-26T10:23:51.641Z,27.66
2018-09-26T10:24:51.645Z,27.69
2018-09-26T10:25:51.647Z,27.66
2018-09-26T10:26:51.658Z,27.63
2018-09-26T10:27:51.665Z,27.77
2018-09-26T10:28:51.670Z,27.69
2018-09-26T10:29:51.674Z,27.69
2018-09-26T10:30:51.680Z,27.77
2018-09-26T10:31:51.693Z,27.70
2018-09-26T10:32:51.695Z,27.69
2018-09-26T10:33:51.712Z,27.74
2018-09-26T10:34:51.746Z,27.72
2018-09-26T10:35:51.714Z,27.69
2018-09-26T10:36:51.720Z,27.65
2018-09-26T10:37:51.725Z,27.63
2018-09-26T10:38:51.731Z,27.66
2018-09-26T10:39:51.739Z,27.78
2018-09-26T10:40:51.771Z,27.63
2018-09-26T10:41:51.750Z,27.69
2018-09-26T10:42:51.756Z,27.63
2018-09-26T10:43:51.763Z,27.74
2018-09-26T10:44:51.769Z,27.77
2018-09-26T10:45:51.775Z,27.69
2018-09-26T10:46:51.797Z,27.82
2018-09-26T10:47:51.787Z,27.72
2018-09-26T10:48:51.794Z,27.75
2018-09-26T10:49:51.799Z,27.75
2018-09-26T10:50:51.803Z,27.77
2018-09-26T10:51:51.825Z,27.66
2018-09-26T10:52:51.818Z,27.74
2018-09-26T10:53:51.827Z,27.69
2018-09-26T10:54:51.835Z,27.75
2018-09-26T10:55:51.835Z,27.75
2018-09-26T10:56:51.848Z,27.69
2018-09-26T10:57:51.871Z,27.77
2018-09-26T10:58:51.857Z,27.75
2018-09-26T10:59:51.863Z,27.79
2018-09-26T11:00:51.874Z,27.77
2018-09-26T11:01:51.917Z,27.78
2018-09-26T11:02:51.880Z,27.77
2018-09-26T11:03:51.885Z,27.78
2018-09-26T11:04:51.897Z,27.75
2018-09-26T11:05:51.900Z,27.78
2018-09-26T11:06:51.905Z,27.72
2018-09-26T11:07:51.911Z,27.78
2018-09-26T11:08:51.921Z,27.74
2018-09-26T11:09:51.923Z,27.74
2018-09-26T11:10:51.936Z,27.77
2018-09-26T11:11:51.936Z,27.74
2018-09-26T11:12:51.944Z,27.70
2018-09-26T11:13:51.949Z,27.81
2018-09-26T11:14:51.955Z,27.82
2018-09-26T11:15:51.968Z,27.79
2018-09-26T11:16:51.970Z,27.79
2018-09-26T11:17:51.973Z,27.72
2018-09-26T11:18:52.033Z,27.74
2018-09-26T11:19:51.989Z,27.75
2018-09-26T11:20:51.993Z,27.77
2018-09-26T11:21:51.999Z,27.78
2018-09-26T11:22:52.005Z,27.77
2018-09-26T11:23:52.012Z,27.75
2018-09-26T11:24:52.019Z,27.81
2018-09-26T11:25:52.025Z,27.72
2018-09-26T11:26:52.030Z,27.70
2018-09-26T11:27:52.037Z,27.70
2018-09-26T11:28:52.051Z,27.72
2018-09-26T11:29:52.055Z,27.74
2018-09-26T11:30:52.055Z,27.72
2018-09-26T11:31:52.062Z,27.77
2018-09-26T11:32:52.068Z,27.70
2018-09-26T11:33:52.237Z,27.79
2018-09-26T11:34:52.079Z,27.74
2018-09-26T11:35:52.084Z,27.69
2018-09-26T11:36:52.093Z,27.82
2018-09-26T11:37:52.097Z,27.74
2018-09-26T11:38:52.106Z,27.72
2018-09-26T11:39:52.113Z,27.70
2018-09-26T11:40:52.118Z,27.72
2018-09-26T11:41:52.123Z,27.75
2018-09-26T11:42:52.130Z,27.75
2018-09-26T11:43:52.137Z,27.82
2018-09-26T11:44:52.310Z,27.75
2018-09-26T11:45:52.149Z,27.78
2018-09-26T11:46:52.155Z,27.74
2018-09-26T11:47:52.162Z,27.77
2018-09-26T11:48:52.168Z,27.70
2018-09-26T11:49:52.173Z,27.66
2018-09-26T11:50:52.181Z,27.63
2018-09-26T11:51:52.187Z,27.78
2018-09-26T11:52:52.190Z,27.77
2018-09-26T11:53:52.205Z,27.63
2018-09-26T11:54:52.205Z,27.66
2018-09-26T11:55:52.226Z,27.63
2018-09-26T11:56:52.222Z,27.69
2018-09-26T11:57:52.223Z,27.75
2018-09-26T11:58:52.231Z,27.66
2018-09-26T11:59:52.237Z,27.66
2018-09-26T12:00:52.241Z,27.74
2018-09-26T12:01:52.247Z,27.67
2018-09-26T12:02:52.256Z,27.69
2018-09-26T12:03:52.264Z,27.67
2018-09-26T12:04:52.270Z,27.74
2018-09-26T12:05:52.273Z,27.70
2018-09-26T12:06:52.279Z,27.67
2018-09-26T12:07:52.284Z,27.69
2018-09-26T12:08:52.292Z,27.78
2018-09-26T12:09:52.298Z,27.65
2018-09-26T12:10:52.304Z,27.74
2018-09-26T12:11:52.310Z,27.75
2018-09-26T12:12:52.316Z,27.69
2018-09-26T12:13:52.395Z,27.72
2018-09-26T12:14:52.330Z,27.63
2018-09-26T12:15:52.388Z,27.69
2018-09-26T12:16:52.344Z,27.69
2018-09-26T12:17:52.347Z,27.78
2018-09-26T12:18:52.354Z,27.67
2018-09-26T12:19:52.362Z,27.65
2018-09-26T12:20:52.389Z,27.75
2018-09-26T12:21:52.420Z,27.66
2018-09-26T12:22:52.379Z,27.70
2018-09-26T12:23:52.386Z,27.74
2018-09-26T12:24:52.394Z,27.67
2018-09-26T12:25:52.396Z,27.65
2018-09-26T12:26:52.412Z,27.66
2018-09-26T12:27:52.439Z,27.65
2018-09-26T12:28:52.417Z,27.69
2018-09-26T12:29:52.423Z,27.70
2018-09-26T12:30:52.429Z,27.70
2018-09-26T12:31:52.435Z,27.66
2018-09-26T12:32:52.445Z,27.77
2018-09-26T12:33:52.447Z,27.62
2018-09-26T12:34:52.517Z,27.70
2018-09-26T12:35:52.461Z,27.66
2018-09-26T12:36:52.466Z,27.75
2018-09-26T12:37:52.471Z,27.62
2018-09-26T12:38:52.477Z,27.67
2018-09-26T12:39:52.484Z,27.75
2018-09-26T12:40:52.491Z,27.67
2018-09-26T12:41:52.497Z,27.65
2018-09-26T12:42:52.642Z,27.62
2018-09-26T12:43:52.507Z,27.70
2018-09-26T12:44:52.523Z,27.70
2018-09-26T12:45:52.520Z,27.63
2018-09-26T12:46:52.531Z,27.70
2018-09-26T12:47:52.579Z,27.75
2018-09-26T12:48:52.543Z,27.74
2018-09-26T12:49:52.547Z,27.69
2018-09-26T12:50:52.552Z,27.63
2018-09-26T12:51:52.559Z,27.63
2018-09-26T12:52:52.565Z,27.79